createdAt,value
2018-12-01T00:00:35.272Z,42.00
2018-12-01T00:03:04.853Z,33.60
2018-12-01T00:05:34.125Z,33.80
2018-12-01T00:08:03.403Z,36.13
2018-12-01T00:10:32.705Z,36.37
2018-12-01T00:13:02.066Z,43.70
2018-12-01T00:15:33.128Z,37.87
2018-12-01T00:18:02.462Z,36.10
2018-12-01T00:20:35.814Z,35.07
2018-12-01T00:23:05.962Z,40.17
2018-12-01T00:25:35.335Z,39.07
2018-12-01T00:28:04.714Z,37.20
2018-12-01T00:30:34.054Z,37.77
2018-12-01T00:33:03.673Z,36.67
2018-12-01T00:35:32.908Z,36.60
2018-12-01T00:38:02.635Z,34.87
2018-12-01T00:40:32.804Z,37.13
2018-12-01T00:43:02.110Z,35.50
2018-12-01T00:45:31.367Z,39.87
2018-12-01T00:48:00.611Z,40.23
2018-12-01T00:50:29.911Z,39.80
2018-12-01T00:52:59.154Z,33.73
2018-12-01T00:55:28.418Z,34.20
2018-12-01T00:57:57.851Z,35.10
2018-12-01T01:00:27.985Z,41.70
2018-12-01T01:02:58.730Z,35.93
2018-12-01T01:05:30.427Z,35.00
2018-12-01T01:08:00.549Z,36.17
2018-12-01T01:10:31.048Z,40.57
2018-12-01T01:13:00.343Z,35.10
2018-12-01T01:15:29.622Z,37.37
2018-12-01T01:17:58.865Z,34.93
2018-12-01T01:20:28.214Z,39.13
2018-12-01T01:22:57.527Z,36.47
2018-12-01T01:25:26.797Z,45.97
2018-12-01T01:27:56.142Z,42.53
2018-12-01T01:30:25.562Z,39.60
2018-12-01T01:33:06.054Z,39.03
2018-12-01T01:35:35.329Z,42.20
2018-12-01T01:38:04.626Z,41.07
2018-12-01T01:40:33.877Z,37.43
2018-12-01T01:43:03.126Z,37.50
2018-12-01T01:45:32.356Z,43.20
2018-12-01T01:48:01.627Z,43.17
2018-12-01T01:50:30.901Z,45.93
2018-12-01T01:53:00.745Z,47.23
2018-12-01T01:55:30.032Z,45.23
2018-12-01T01:57:59.310Z,42.60
2018-12-01T02:00:28.588Z,41.73
2018-12-01T02:02:57.842Z,44.53
2018-12-01T02:05:27.062Z,40.90
2018-12-01T02:07:57.075Z,43.20
2018-12-01T02:10:26.318Z,42.00
2018-12-01T02:12:55.575Z,48.23
2018-12-01T02:15:24.848Z,45.70
2018-12-01T02:17:54.080Z,54.23
2018-12-01T02:20:23.367Z,46.83
2018-12-01T02:22:52.653Z,44.07
2018-12-01T02:25:21.959Z,51.83
2018-12-01T02:27:51.203Z,52.67
2018-12-01T02:30:21.377Z,46.40
2018-12-01T02:32:50.717Z,55.57
2018-12-01T02:35:22.363Z,56.97
2018-12-01T02:37:52.413Z,48.50
2018-12-01T02:40:21.759Z,52.13
2018-12-01T02:42:51.142Z,54.10
2018-12-01T02:45:31.574Z,56.87
2018-12-01T02:48:00.830Z,55.07
2018-12-01T02:50:30.829Z,58.00
2018-12-01T02:53:01.036Z,50.50
2018-12-01T02:55:30.397Z,54.93
2018-12-01T02:58:00.210Z,52.90
2018-12-01T03:00:29.550Z,56.27
2018-12-01T03:02:58.866Z,51.80
2018-12-01T03:05:28.138Z,56.83
2018-12-01T03:07:57.399Z,53.70
2018-12-01T03:10:26.697Z,57.07
2018-12-01T03:12:56.062Z,59.27
2018-12-01T03:15:25.318Z,58.37
2018-12-01T03:17:54.592Z,58.40
2018-12-01T03:20:23.855Z,61.33
2018-12-01T03:22:53.376Z,66.97
2018-12-01T03:25:23.457Z,61.80
2018-12-01T03:27:54.754Z,68.33
2018-12-01T03:30:26.201Z,67.53
2018-12-01T03:32:55.871Z,63.03
2018-12-01T03:35:26.300Z,69.97
2018-12-01T03:37:55.540Z,71.67
2018-12-01T03:40:24.895Z,69.00
2018-12-01T03:42:54.173Z,67.33
2018-12-01T03:45:23.888Z,65.00
2018-12-01T03:47:53.465Z,62.20
2018-12-01T03:50:24.181Z,62.97
2018-12-01T03:52:54.731Z,61.17
2018-12-01T03:55:30.176Z,67.77
2018-12-01T03:58:00.005Z,70.97
2018-12-01T04:00:30.972Z,66.90
2018-12-01T04:03:01.021Z,76.67
2018-12-01T04:05:30.642Z,74.67
2018-12-01T04:07:59.935Z,75.67
2018-12-01T04:10:29.274Z,74.20
2018-12-01T04:12:58.559Z,71.03
2018-12-01T04:15:27.881Z,70.07
2018-12-01T04:17:57.159Z,74.47
2018-12-01T04:20:26.692Z,70.27
2018-12-01T04:22:55.989Z,68.23
2018-12-01T04:25:25.354Z,85.20
2018-12-01T04:27:54.587Z,81.70
2018-12-01T04:30:25.176Z,78.87
2018-12-01T04:32:54.628Z,83.83
2018-12-01T04:35:24.618Z,85.67
2018-12-01T04:37:54.934Z,86.30
2018-12-01T04:40:24.701Z,96.53
2018-12-01T04:42:54.201Z,83.70
2018-12-01T04:45:23.494Z,96.30
2018-12-01T04:47:52.846Z,89.63
2018-12-01T04:50:22.203Z,92.47
2018-12-01T04:52:51.562Z,96.37
2018-12-01T04:55:21.470Z,91.03
2018-12-01T04:57:50.827Z,82.63
2018-12-01T05:00:21.391Z,84.40
2018-12-01T05:02:50.621Z,90.13
2018-12-01T05:05:22.513Z,87.20
2018-12-01T05:07:51.867Z,82.90
2018-12-01T05:10:22.935Z,83.63
2018-12-01T05:12:52.222Z,81.27
2018-12-01T05:15:21.544Z,79.80
2018-12-01T05:17:50.829Z,75.13
2018-12-01T05:20:23.849Z,78.93
2018-12-01T05:22:53.699Z,71.37
2018-12-01T05:25:23.149Z,77.03
2018-12-01T05:27:52.467Z,83.33
2018-12-01T05:30:21.853Z,86.93
2018-12-01T05:32:51.175Z,82.07
2018-12-01T05:35:21.725Z,75.83
2018-12-01T05:37:51.068Z,74.10
2018-12-01T05:40:20.726Z,75.87
2018-12-01T05:42:50.015Z,69.97
2018-12-01T05:45:22.526Z,76.60
2018-12-01T05:47:52.429Z,80.20
2018-12-01T05:50:26.571Z,71.23
2018-12-01T05:52:56.758Z,75.23
2018-12-01T05:55:26.338Z,68.60
2018-12-01T05:57:55.625Z,78.10
2018-12-01T06:00:25.059Z,75.90
2018-12-01T06:02:54.339Z,78.90
2018-12-01T06:05:23.573Z,82.77
2018-12-01T06:07:52.892Z,79.47
2018-12-01T06:10:23.718Z,80.10
2018-12-01T06:12:53.607Z,78.40
2018-12-01T06:15:23.371Z,79.30
2018-12-01T06:17:52.625Z,83.97
2018-12-01T06:20:23.150Z,83.97
2018-12-01T06:22:52.473Z,84.93
2018-12-01T06:25:23.841Z,77.40
2018-12-01T06:27:53.647Z,88.73
2018-12-01T06:30:22.917Z,78.50
2018-12-01T06:32:53.043Z,78.10
2018-12-01T06:35:22.303Z,75.60
2018-12-01T06:37:58.301Z,79.73
2018-12-01T06:40:27.570Z,78.37
2018-12-01T06:42:56.805Z,77.90
2018-12-01T06:45:26.194Z,77.13
2018-12-01T06:47:55.516Z,83.93
2018-12-01T06:50:24.797Z,80.10
2018-12-01T06:52:54.387Z,81.60
2018-12-01T06:55:24.085Z,84.80
2018-12-01T06:57:53.405Z,83.60
2018-12-01T07:00:24.688Z,80.27
2018-12-01T07:02:55.198Z,85.53
2018-12-01T07:05:24.474Z,84.33
2018-12-01T07:07:53.783Z,93.13
2018-12-01T07:10:23.706Z,80.27
2018-12-01T07:12:58.637Z,83.70
2018-12-01T07:15:33.580Z,87.90
2018-12-01T07:18:07.371Z,73.47
2018-12-01T07:20:36.626Z,78.57
2018-12-01T07:23:06.250Z,79.63
2018-12-01T07:25:35.655Z,79.63
2018-12-01T07:28:05.074Z,72.57
2018-12-01T07:30:34.456Z,76.10
2018-12-01T07:33:03.781Z,71.83
2018-12-01T07:35:33.191Z,71.33
2018-12-01T07:38:02.545Z,77.97
2018-12-01T07:40:31.906Z,70.87
2018-12-01T07:43:01.845Z,68.70
2018-12-01T07:45:31.167Z,71.13
2018-12-01T07:48:00.473Z,68.23
2018-12-01T07:50:29.867Z,65.30
2018-12-01T07:52:59.126Z,75.93
2018-12-01T07:55:28.384Z,76.70
2018-12-01T07:57:57.617Z,70.10
2018-12-01T08:00:26.983Z,74.20
2018-12-01T08:02:56.488Z,72.00
2018-12-01T08:05:25.818Z,73.87
2018-12-01T08:07:55.175Z,71.70
2018-12-01T08:10:24.438Z,73.97
2018-12-01T08:12:53.703Z,75.57
2018-12-01T08:15:24.033Z,69.43
2018-12-01T08:17:52.347Z,75.80
2018-12-01T08:20:21.718Z,68.07
2018-12-01T08:22:51.002Z,70.90
2018-12-01T08:25:21.601Z,70.70
2018-12-01T08:27:54.237Z,66.20
2018-12-01T08:30:27.126Z,67.07
2018-12-01T08:32:56.390Z,64.30
2018-12-01T08:35:26.986Z,66.33
2018-12-01T08:37:56.250Z,71.00
2018-12-01T08:40:27.107Z,64.13
2018-12-01T08:42:56.456Z,72.87
2018-12-01T08:45:25.700Z,66.50
2018-12-01T08:47:55.023Z,62.47
2018-12-01T08:50:24.768Z,62.53
2018-12-01T08:52:54.217Z,60.23
2018-12-01T08:55:24.443Z,62.90
2018-12-01T08:57:54.509Z,60.47
2018-12-01T09:00:27.841Z,57.57
2018-12-01T09:02:58.783Z,59.33
2018-12-01T09:05:28.081Z,55.13
2018-12-01T09:07:57.359Z,53.87
2018-12-01T09:10:26.626Z,55.60
2018-12-01T09:12:55.894Z,50.13
2018-12-01T09:15:25.177Z,53.97
2018-12-01T09:17:54.519Z,51.37
2018-12-01T09:20:23.823Z,50.37
2018-12-01T09:22:53.089Z,52.47
2018-12-01T09:25:22.362Z,43.40
2018-12-01T09:27:51.625Z,48.07
2018-12-01T09:30:23.129Z,42.40
2018-12-01T09:32:52.427Z,43.10
2018-12-01T09:35:21.684Z,44.23
2018-12-01T09:37:52.053Z,40.20
2018-12-01T09:40:22.406Z,35.60
2018-12-01T09:42:51.662Z,41.13
2018-12-01T09:45:25.001Z,34.27
2018-12-01T09:47:55.536Z,33.80
2018-12-01T09:50:24.782Z,40.97
2018-12-01T09:52:56.049Z,35.40
2018-12-01T09:55:28.466Z,37.13
2018-12-01T09:57:58.460Z,31.60
2018-12-01T10:00:30.843Z,30.47
2018-12-01T10:03:02.306Z,37.73
2018-12-01T10:05:32.296Z,31.73
2018-12-01T10:08:01.559Z,28.57
2018-12-01T10:10:30.866Z,26.43
2018-12-01T10:13:00.129Z,30.07
2018-12-01T10:15:32.279Z,32.23
2018-12-01T10:18:01.649Z,28.93
2018-12-01T10:20:32.389Z,29.67
2018-12-01T10:23:03.047Z,27.20
2018-12-01T10:25:32.284Z,27.03
2018-12-01T10:28:01.530Z,25.70
2018-12-01T10:30:30.837Z,24.50
2018-12-01T10:33:00.113Z,25.63
2018-12-01T10:35:29.369Z,25.13
2018-12-01T10:38:00.071Z,21.57
2018-12-01T10:40:29.322Z,24.80
2018-12-01T10:42:58.572Z,20.23
2018-12-01T10:45:27.865Z,19.37
2018-12-01T10:47:57.093Z,22.60
2018-12-01T10:50:26.418Z,19.43
2018-12-01T10:52:56.053Z,21.80
2018-12-01T10:55:28.250Z,23.67
2018-12-01T10:58:01.789Z,21.77
2018-12-01T11:00:37.114Z,22.13
2018-12-01T11:03:11.522Z,24.23
2018-12-01T11:05:40.861Z,19.83
2018-12-01T11:08:11.353Z,19.57
2018-12-01T11:10:40.583Z,22.17
2018-12-01T11:13:10.014Z,19.93
2018-12-01T11:15:39.453Z,23.30
2018-12-01T11:18:08.721Z,22.57
2018-12-01T11:20:38.466Z,19.67
2018-12-01T11:23:07.897Z,21.70
2018-12-01T11:25:37.448Z,23.73
2018-12-01T11:28:06.711Z,20.77
2018-12-01T11:30:37.675Z,21.00
2018-12-01T11:33:07.728Z,23.03
2018-12-01T11:35:37.062Z,24.33
2018-12-01T11:38:07.260Z,20.50
2018-12-01T11:40:36.515Z,23.00
2018-12-01T11:43:07.183Z,23.43
2018-12-01T11:45:36.475Z,19.80
2018-12-01T11:48:06.599Z,19.03
2018-12-01T11:50:35.892Z,19.17
2018-12-01T11:53:05.570Z,17.03
2018-12-01T11:55:34.803Z,21.27
2018-12-01T11:58:04.398Z,18.13
2018-12-01T12:00:33.673Z,18.57
2018-12-01T12:03:03.111Z,21.63
2018-12-01T12:05:32.466Z,25.13
2018-12-01T12:08:24.230Z,20.10
2018-12-01T12:10:53.912Z,20.43
2018-12-01T12:13:28.770Z,23.10
2018-12-01T12:15:58.074Z,22.27
2018-12-01T12:18:28.815Z,20.67
2018-12-01T12:20:57.072Z,20.77
2018-12-01T12:23:26.469Z,25.50
2018-12-01T12:25:55.735Z,28.90
2018-12-01T12:28:25.011Z,28.27
2018-12-01T12:30:54.384Z,29.33
2018-12-01T12:33:24.330Z,26.50
2018-12-01T12:35:54.406Z,28.77
2018-12-01T12:38:23.682Z,30.33
2018-12-01T12:40:52.906Z,33.10
2018-12-01T12:43:22.398Z,31.17
2018-12-01T12:45:52.322Z,35.37
2018-12-01T12:48:21.588Z,36.20
2018-12-01T12:50:53.215Z,30.53
2018-12-01T12:53:20.220Z,32.33
2018-12-01T12:55:49.465Z,37.17
2018-12-01T12:58:18.820Z,38.67
2018-12-01T13:00:48.195Z,35.40
2018-12-01T13:03:17.559Z,30.47
2018-12-01T13:05:47.188Z,38.63
2018-12-01T13:08:17.952Z,34.77
2018-12-01T13:10:47.544Z,35.63
2018-12-01T13:13:16.853Z,35.93
2018-12-01T13:15:46.137Z,31.17
2018-12-01T13:18:15.653Z,32.47
2018-12-01T13:20:47.854Z,35.13
2018-12-01T13:23:17.160Z,33.80
2018-12-01T13:25:46.504Z,33.23
2018-12-01T13:28:23.021Z,33.67
2018-12-01T13:31:00.156Z,33.87
2018-12-01T13:33:33.034Z,32.83
2018-12-01T13:36:02.406Z,26.53
2018-12-01T13:38:31.947Z,28.73
2018-12-01T13:41:01.234Z,33.70
2018-12-01T13:43:30.599Z,27.90
2018-12-01T13:46:00.657Z,29.97
2018-12-01T13:48:29.865Z,28.43
2018-12-01T13:50:59.193Z,38.63
2018-12-01T13:53:29.165Z,29.13
2018-12-01T13:55:58.497Z,28.87
2018-12-01T13:58:27.864Z,29.50
2018-12-01T14:00:57.163Z,27.70
2018-12-01T14:03:26.441Z,21.43
2018-12-01T14:05:55.963Z,24.93
2018-12-01T14:08:25.265Z,23.00
2018-12-01T14:10:54.753Z,24.93
2018-12-01T14:13:24.015Z,21.20
2018-12-01T14:15:53.378Z,20.67
2018-12-01T14:18:23.872Z,20.93
2018-12-01T14:20:53.258Z,22.20
2018-12-01T14:23:22.553Z,18.77
2018-12-01T14:25:51.799Z,16.00
2018-12-01T14:28:21.108Z,22.50
2018-12-01T14:30:50.441Z,17.57
2018-12-01T14:33:19.801Z,17.47
2018-12-01T14:35:50.351Z,19.30
2018-12-01T14:38:19.626Z,18.87
2018-12-01T14:40:49.885Z,17.03
2018-12-01T14:43:19.277Z,15.93
2018-12-01T14:45:49.643Z,20.10
2018-12-01T14:48:18.947Z,17.50
2018-12-01T14:50:48.702Z,14.20
2018-12-01T14:53:18.238Z,19.37
2018-12-01T14:55:47.523Z,13.13
2018-12-01T14:58:16.871Z,19.63
2018-12-01T15:00:46.212Z,14.17
2018-12-01T15:03:15.531Z,17.97
2018-12-01T15:05:44.815Z,13.37
2018-12-01T15:08:14.182Z,21.23
2018-12-01T15:10:44.500Z,20.43
2018-12-01T15:13:13.908Z,19.63
2018-12-01T15:15:43.770Z,19.63
2018-12-01T15:18:13.054Z,17.97
2018-12-01T15:20:42.369Z,20.37
2018-12-01T15:23:12.260Z,18.60
2018-12-01T15:25:41.878Z,19.03
2018-12-01T15:28:11.909Z,18.70
2018-12-01T15:30:41.219Z,15.33
2018-12-01T15:33:14.687Z,17.43
2018-12-01T15:35:44.890Z,15.17
2018-12-01T15:38:14.425Z,15.33
2018-12-01T15:40:44.815Z,17.23
2018-12-01T15:43:14.188Z,21.83
2018-12-01T15:45:43.559Z,14.60
2018-12-01T15:48:12.938Z,17.27
2018-12-01T15:50:42.611Z,16.33
2018-12-01T15:53:13.988Z,16.40
2018-12-01T15:55:43.375Z,20.13
2018-12-01T15:58:12.624Z,17.83
2018-12-01T16:00:42.713Z,16.57
2018-12-01T16:03:12.084Z,16.80
2018-12-01T16:05:41.682Z,20.37
2018-12-01T16:08:11.557Z,19.40
2018-12-01T16:10:41.022Z,17.37
2018-12-01T16:13:12.759Z,18.97
2018-12-01T16:15:46.141Z,16.73
2018-12-01T16:18:15.426Z,16.90
2018-12-01T16:20:44.815Z,16.87
2018-12-01T16:23:14.085Z,17.90
2018-12-01T16:25:43.399Z,21.13
2018-12-01T16:28:12.742Z,18.23
2018-12-01T16:30:44.338Z,17.37
2018-12-01T16:33:15.123Z,18.67
2018-12-01T16:35:44.474Z,17.87
2018-12-01T16:38:15.279Z,21.67
2018-12-01T16:40:49.231Z,16.43
2018-12-01T16:43:18.656Z,18.20
2018-12-01T16:45:49.886Z,17.40
2018-12-01T16:48:20.197Z,18.03
2018-12-01T16:50:49.526Z,18.73
2018-12-01T16:53:20.255Z,19.23
2018-12-01T16:55:49.554Z,15.43
2018-12-01T16:58:18.866Z,17.03
2018-12-01T17:00:48.182Z,17.03
2018-12-01T17:03:17.506Z,15.87
2018-12-01T17:05:49.676Z,20.00
2018-12-01T17:08:18.936Z,21.13
2018-12-01T17:10:48.510Z,19.13
2018-12-01T17:13:18.212Z,16.73
2018-12-01T17:15:48.417Z,16.83
2018-12-01T17:18:17.719Z,14.50
2018-12-01T17:20:46.967Z,18.53
2018-12-01T17:23:17.557Z,18.73
2018-12-01T17:25:46.813Z,16.47
2018-12-01T17:28:17.631Z,17.87
2018-12-01T17:30:47.118Z,19.10
2018-12-01T17:33:16.408Z,14.77
2018-12-01T17:35:45.710Z,18.20
2018-12-01T17:38:17.794Z,17.07
2018-12-01T17:40:53.246Z,18.53
2018-12-01T17:43:27.013Z,17.53
2018-12-01T17:45:56.409Z,16.43
2018-12-01T17:48:25.786Z,15.80
2018-12-01T17:50:55.098Z,15.20
2018-12-01T17:53:24.394Z,15.87
2018-12-01T17:55:53.658Z,17.33
2018-12-01T17:58:23.061Z,13.90
2018-12-01T18:00:52.342Z,14.73
2018-12-01T18:03:21.711Z,15.13
2018-12-01T18:05:51.306Z,12.63
2018-12-01T18:08:21.841Z,18.80
2018-12-01T18:10:52.801Z,15.93
2018-12-01T18:13:22.501Z,17.30
2018-12-01T18:15:51.994Z,16.40
2018-12-01T18:18:21.275Z,14.17
2018-12-01T18:20:50.570Z,15.67
2018-12-01T18:23:20.464Z,14.20
2018-12-01T18:25:52.078Z,15.27
2018-12-01T18:28:23.930Z,18.13
2018-12-01T18:30:53.309Z,19.20
2018-12-01T18:33:34.781Z,16.80
2018-12-01T18:36:04.197Z,18.23
2018-12-01T18:38:33.589Z,17.17
2018-12-01T18:41:02.848Z,17.53
2018-12-01T18:43:32.140Z,17.10
2018-12-01T18:46:02.804Z,19.20
2018-12-01T18:48:32.083Z,16.40
2018-12-01T18:51:01.396Z,18.60
2018-12-01T18:53:30.813Z,16.67
2018-12-01T18:56:00.081Z,19.67
2018-12-01T18:58:29.365Z,19.57
2018-12-01T19:00:58.785Z,14.03
2018-12-01T19:03:29.656Z,14.77
2018-12-01T19:05:59.137Z,13.80
2018-12-01T19:08:28.523Z,14.97
2018-12-01T19:10:58.037Z,17.10
2018-12-01T19:13:27.331Z,15.87
2018-12-01T19:15:56.832Z,15.67
2018-12-01T19:18:26.070Z,16.23
2018-12-01T19:20:55.350Z,14.63
2018-12-01T19:23:24.659Z,14.27
2018-12-01T19:25:54.084Z,13.90
2018-12-01T19:28:24.601Z,14.37
2018-12-01T19:30:54.785Z,12.30
2018-12-01T19:33:24.669Z,12.03
2018-12-01T19:35:54.622Z,10.90
2018-12-01T19:38:26.274Z,11.87
2018-12-01T19:40:56.522Z,15.20
2018-12-01T19:43:25.797Z,11.80
2018-12-01T19:45:55.150Z,12.73
2018-12-01T19:48:24.994Z,11.50
2018-12-01T19:50:54.558Z,11.70
2018-12-01T19:53:23.910Z,11.30
2018-12-01T19:55:54.127Z,14.47
2018-12-01T19:58:25.806Z,11.87
2018-12-01T20:00:56.403Z,14.60
2018-12-01T20:03:27.033Z,13.70
2018-12-01T20:05:56.311Z,13.53
2018-12-01T20:08:25.603Z,13.50
2018-12-01T20:11:03.351Z,14.87
2018-12-01T20:13:40.127Z,13.73
2018-12-01T20:16:23.206Z,16.63
2018-12-01T20:18:53.491Z,15.20
2018-12-01T20:21:23.304Z,15.53
2018-12-01T20:23:52.616Z,16.43
2018-12-01T20:26:21.947Z,18.60
2018-12-01T20:28:51.537Z,17.87
2018-12-01T20:31:20.859Z,19.07
2018-12-01T20:33:51.925Z,19.23
2018-12-01T20:36:27.290Z,21.13
2018-12-01T20:39:02.684Z,23.30
2018-12-01T20:41:32.074Z,24.10
2018-12-01T20:44:01.352Z,24.73
2018-12-01T20:46:30.607Z,25.33
2018-12-01T20:48:59.842Z,25.67
2018-12-01T20:51:29.082Z,26.77
2018-12-01T20:53:58.416Z,27.47
2018-12-01T20:56:30.163Z,27.13
2018-12-01T20:58:59.484Z,27.90
2018-12-01T21:01:28.727Z,28.00
2018-12-01T21:03:58.109Z,28.70
2018-12-01T21:06:27.432Z,29.20
2018-12-01T21:08:56.686Z,28.20
2018-12-01T21:11:26.037Z,29.37
2018-12-01T21:13:55.386Z,28.27
2018-12-01T21:16:24.705Z,27.97
2018-12-01T21:18:54.086Z,25.77
2018-12-01T21:21:23.402Z,26.50
2018-12-01T21:23:54.060Z,25.77
2018-12-01T21:26:24.194Z,26.00
2018-12-01T21:28:53.727Z,25.97
2018-12-01T21:31:23.068Z,25.20
2018-12-01T21:33:52.343Z,26.23
2018-12-01T21:36:21.638Z,25.37
2018-12-01T21:38:50.991Z,24.23
2018-12-01T21:41:20.395Z,24.37
2018-12-01T21:43:49.779Z,24.07
2018-12-01T21:46:19.121Z,23.57
2018-12-01T21:48:48.446Z,25.00
2018-12-01T21:51:17.832Z,23.53
2018-12-01T21:53:52.173Z,23.37
2018-12-01T21:56:21.454Z,22.83
2018-12-01T21:58:51.173Z,24.07
2018-12-01T22:01:21.319Z,24.57
2018-12-01T22:03:51.350Z,23.23
2018-12-01T22:06:20.036Z,22.10
2018-12-01T22:08:49.314Z,23.97
2018-12-01T22:11:19.033Z,22.57
2018-12-01T22:13:48.377Z,25.67
2018-12-01T22:16:17.675Z,24.33
2018-12-01T22:18:47.078Z,24.27
2018-12-01T22:21:16.361Z,25.83
2018-12-01T22:23:45.632Z,25.27
2018-12-01T22:26:15.794Z,27.17
2018-12-01T22:28:45.090Z,25.67
2018-12-01T22:31:14.370Z,27.90
2018-12-01T22:33:43.621Z,25.67
2018-12-01T22:36:12.990Z,27.33
2018-12-01T22:38:42.261Z,25.23
2018-12-01T22:41:11.552Z,25.20
2018-12-01T22:43:40.810Z,27.47
2018-12-01T22:46:10.173Z,26.23
2018-12-01T22:48:39.431Z,26.73
2018-12-01T22:51:08.726Z,25.50
2018-12-01T22:53:38.105Z,26.33
2018-12-01T22:56:08.235Z,26.13
2018-12-01T22:58:37.554Z,23.30
2018-12-01T23:01:07.717Z,25.93
2018-12-01T23:03:39.991Z,28.90
2018-12-01T23:06:09.281Z,28.17
2018-12-01T23:08:38.550Z,25.37
2018-12-01T23:11:07.896Z,28.77
2018-12-01T23:13:37.692Z,27.90
2018-12-01T23:16:07.022Z,26.33
2018-12-01T23:18:36.323Z,30.57
2018-12-01T23:21:06.094Z,25.43
2018-12-01T23:23:35.761Z,23.93
2018-12-01T23:26:05.032Z,23.87
2018-12-01T23:28:34.327Z,26.00
2018-12-01T23:31:03.640Z,23.57
2018-12-01T23:33:32.901Z,23.40
2018-12-01T23:36:02.138Z,22.07
2018-12-01T23:38:31.451Z,22.60
2018-12-01T23:41:00.821Z,21.13
2018-12-01T23:43:30.032Z,22.80
2018-12-01T23:45:59.345Z,22.47
2018-12-01T23:48:28.613Z,22.33
2018-12-01T23:50:57.857Z,22.80
2018-12-01T23:53:27.233Z,22.43
2018-12-01T23:55:56.598Z,22.13
2018-12-01T23:58:25.852Z,21.10
